METARs


 

Curacao


TNCC 190600Z 15005KT 9999 FEW018 26/22 Q1010 NOSIG

 

Aruba


TNCA 190600Z 11004KT 9999 FEW019 26/23 Q1010 NOSIG

 

Bonaire


TNCB 190555Z AUTO 10004KT 9999 FEW023/// 26/23 Q1010

 

 

TAFs


 

Curacao


TAF TAF TNCC 031115Z 0312/0412 11013KT 9999 FEW020

Aruba


TAF TNCA 190517Z 1906/2006 08005KT 9999 SCT018 PROB30 TEMPO 1906/1912 7000 -SHRA BKN014 BECMG 1910/1912 VRB05KT

Bonaire


TAF TAF TNCB 190509Z 1906/2012 08007KT 9999 SCT018 PROB40 TEMPO 2003/2012 6000 SHRA SCT015CB

 

 

Caribbean Surface Analysis